createdAt,value
2018-09-09T00:01:17.016Z,99.90
2018-09-09T00:03:45.655Z,99.90
2018-09-09T00:06:14.311Z,99.90
2018-09-09T00:08:42.925Z,99.90
2018-09-09T00:11:11.665Z,99.90
2018-09-09T00:13:40.310Z,99.90
2018-09-09T00:16:08.975Z,99.90
2018-09-09T00:18:37.737Z,99.90
2018-09-09T00:21:06.389Z,99.90
2018-09-09T00:23:35.034Z,99.90
2018-09-09T00:26:03.705Z,99.90
2018-09-09T00:28:32.346Z,99.90
2018-09-09T00:31:01.102Z,99.90
2018-09-09T00:33:29.743Z,99.90
2018-09-09T00:35:58.534Z,99.90
2018-09-09T00:38:27.462Z,99.90
2018-09-09T00:40:56.080Z,99.90
2018-09-09T00:43:24.729Z,99.90
2018-09-09T00:45:53.436Z,99.90
2018-09-09T00:48:22.052Z,99.90
2018-09-09T00:50:55.923Z,99.90
2018-09-09T00:53:29.928Z,99.90
2018-09-09T00:55:58.571Z,99.90
2018-09-09T00:58:27.197Z,99.90
2018-09-09T01:01:01.166Z,99.90
2018-09-09T01:03:29.777Z,99.90
2018-09-09T01:05:58.565Z,99.90
2018-09-09T01:08:27.240Z,99.90
2018-09-09T01:10:55.887Z,99.90
2018-09-09T01:13:24.513Z,99.90
2018-09-09T01:16:04.538Z,99.90
2018-09-09T01:18:33.566Z,99.90
2018-09-09T01:21:02.240Z,99.90
2018-09-09T01:23:30.881Z,99.90
2018-09-09T01:25:59.587Z,99.90
2018-09-09T01:28:28.224Z,99.90
2018-09-09T01:30:57.049Z,99.90
2018-09-09T01:33:25.672Z,99.90
2018-09-09T01:35:54.294Z,99.90
2018-09-09T01:38:22.926Z,99.90
2018-09-09T01:40:51.587Z,99.90
2018-09-09T01:43:20.209Z,99.90
2018-09-09T01:45:48.821Z,99.90
2018-09-09T01:48:17.446Z,99.90
2018-09-09T01:50:46.105Z,99.90
2018-09-09T01:53:14.714Z,99.90
2018-09-09T01:55:43.587Z,99.90
2018-09-09T01:58:12.247Z,99.90
2018-09-09T02:00:40.955Z,99.90
2018-09-09T02:03:09.629Z,99.90
2018-09-09T02:05:38.246Z,99.90
2018-09-09T02:08:06.979Z,99.90
2018-09-09T02:10:35.588Z,99.90
2018-09-09T02:13:04.256Z,99.90
2018-09-09T02:15:32.928Z,99.90
2018-09-09T02:18:01.585Z,99.90
2018-09-09T02:20:30.429Z,99.90
2018-09-09T02:22:59.025Z,99.90
2018-09-09T02:25:27.664Z,99.90
2018-09-09T02:27:56.282Z,99.90
2018-09-09T02:30:24.953Z,99.90
2018-09-09T02:32:53.569Z,99.90
2018-09-09T02:35:28.710Z,99.90
2018-09-09T02:37:58.266Z,99.90
2018-09-09T02:40:26.922Z,99.90
2018-09-09T02:42:59.064Z,99.90
2018-09-09T02:45:27.677Z,99.90
2018-09-09T02:47:56.276Z,99.90
2018-09-09T02:50:24.885Z,99.90
2018-09-09T02:52:53.485Z,99.90
2018-09-09T02:55:22.226Z,99.90
2018-09-09T02:57:50.829Z,99.90
2018-09-09T03:00:19.450Z,99.90
2018-09-09T03:02:48.091Z,99.90
2018-09-09T03:05:16.682Z,99.90
2018-09-09T03:07:45.357Z,99.90
2018-09-09T03:10:13.971Z,99.90
2018-09-09T03:12:42.594Z,99.90
2018-09-09T03:15:11.210Z,99.90
2018-09-09T03:17:39.830Z,99.90
2018-09-09T03:20:08.585Z,99.90
2018-09-09T03:22:37.209Z,99.90
2018-09-09T03:25:05.848Z,99.90
2018-09-09T03:27:34.492Z,99.90
2018-09-09T03:30:03.090Z,99.90
2018-09-09T03:32:31.969Z,99.90
2018-09-09T03:35:00.578Z,99.90
2018-09-09T03:37:29.173Z,99.90
2018-09-09T03:39:57.818Z,99.90
2018-09-09T03:42:26.410Z,99.90
2018-09-09T03:44:55.174Z,99.90
2018-09-09T03:47:23.787Z,99.90
2018-09-09T03:49:52.413Z,99.90
2018-09-09T03:52:21.064Z,99.90
2018-09-09T03:54:49.710Z,99.90
2018-09-09T03:57:18.434Z,99.90
2018-09-09T03:59:47.046Z,99.90
2018-09-09T04:02:15.641Z,99.90
2018-09-09T04:04:44.289Z,99.90
2018-09-09T04:07:12.948Z,99.90
2018-09-09T04:09:41.587Z,99.90
2018-09-09T04:12:10.190Z,99.90
2018-09-09T04:14:38.805Z,99.90
2018-09-09T04:17:07.437Z,99.90
2018-09-09T04:19:36.120Z,99.90
2018-09-09T04:22:04.892Z,99.90
2018-09-09T04:24:33.543Z,99.90
2018-09-09T04:27:02.332Z,99.90
2018-09-09T04:29:30.947Z,99.90
2018-09-09T04:31:59.553Z,99.90
2018-09-09T04:34:28.434Z,99.90
2018-09-09T04:36:57.045Z,99.90
2018-09-09T04:39:25.663Z,99.90
2018-09-09T04:41:54.293Z,99.90
2018-09-09T04:44:22.897Z,99.90
2018-09-09T04:46:51.547Z,99.90
2018-09-09T04:49:20.159Z,99.90
2018-09-09T04:51:48.748Z,99.90
2018-09-09T04:54:17.366Z,99.90
2018-09-09T04:56:45.981Z,99.90
2018-09-09T04:59:14.737Z,99.90
2018-09-09T05:01:43.354Z,99.90
2018-09-09T05:04:12.037Z,99.90
2018-09-09T05:06:40.707Z,99.90
2018-09-09T05:09:09.714Z,99.90
2018-09-09T05:11:38.450Z,99.90
2018-09-09T05:14:07.105Z,99.90
2018-09-09T05:16:35.758Z,99.90
2018-09-09T05:19:04.482Z,99.90
2018-09-09T05:21:33.070Z,99.90
2018-09-09T05:24:02.066Z,99.90
2018-09-09T05:26:30.710Z,99.90
2018-09-09T05:28:59.361Z,99.90
2018-09-09T05:31:27.988Z,99.90
2018-09-09T05:33:56.585Z,99.90
2018-09-09T05:36:25.393Z,99.90
2018-09-09T05:38:54.007Z,99.90
2018-09-09T05:41:22.605Z,99.90
2018-09-09T05:43:51.229Z,99.90
2018-09-09T05:46:19.837Z,99.90
2018-09-09T05:48:48.520Z,99.90
2018-09-09T05:51:17.125Z,99.90
2018-09-09T05:53:45.783Z,99.90
2018-09-09T05:56:14.423Z,99.90
2018-09-09T05:58:43.057Z,99.90
2018-09-09T06:01:11.829Z,99.90
2018-09-09T06:03:40.480Z,99.90
2018-09-09T06:06:09.077Z,99.90
2018-09-09T06:08:37.746Z,99.90
2018-09-09T06:11:06.709Z,99.90
2018-09-09T06:13:35.461Z,99.90
2018-09-09T06:16:04.090Z,99.90
2018-09-09T06:18:32.705Z,99.90
2018-09-09T06:21:01.367Z,99.90
2018-09-09T06:23:29.967Z,99.90
2018-09-09T06:25:58.709Z,99.90
2018-09-09T06:28:27.333Z,99.90
2018-09-09T06:30:55.938Z,99.90
2018-09-09T06:33:24.557Z,99.90
2018-09-09T06:35:53.154Z,99.90
2018-09-09T06:38:21.781Z,99.90
2018-09-09T06:40:50.406Z,99.90
2018-09-09T06:43:19.005Z,99.90
2018-09-09T06:45:47.628Z,99.90
2018-09-09T06:48:16.229Z,99.90
2018-09-09T06:50:44.848Z,99.90
2018-09-09T06:53:13.508Z,99.90
2018-09-09T06:55:42.178Z,99.90
2018-09-09T06:58:10.802Z,99.90
2018-09-09T07:00:39.405Z,99.90
2018-09-09T07:03:08.077Z,99.90
2018-09-09T07:05:36.721Z,99.90
2018-09-09T07:08:05.350Z,99.90
2018-09-09T07:10:33.973Z,99.90
2018-09-09T07:13:02.585Z,99.90
2018-09-09T07:15:31.190Z,99.90
2018-09-09T07:17:59.815Z,99.90
2018-09-09T07:20:28.438Z,99.90
2018-09-09T07:22:57.067Z,99.90
2018-09-09T07:25:25.718Z,99.90
2018-09-09T07:27:54.337Z,99.90
2018-09-09T07:30:23.005Z,99.90
2018-09-09T07:32:51.681Z,99.90
2018-09-09T07:35:20.354Z,99.90
2018-09-09T07:37:49.048Z,99.90
2018-09-09T07:40:17.719Z,99.90
2018-09-09T07:42:46.837Z,99.90
2018-09-09T07:45:15.436Z,99.90
2018-09-09T07:47:44.091Z,99.90
2018-09-09T07:50:12.697Z,99.90
2018-09-09T07:52:41.359Z,99.90
2018-09-09T07:55:10.101Z,99.90
2018-09-09T07:57:38.711Z,99.90
2018-09-09T08:00:07.678Z,99.90
2018-09-09T08:02:36.561Z,99.90
2018-09-09T08:05:05.214Z,99.90
2018-09-09T08:07:33.829Z,99.90
2018-09-09T08:10:02.484Z,99.90
2018-09-09T08:12:31.078Z,99.90
2018-09-09T08:14:59.757Z,99.90
2018-09-09T08:17:28.381Z,99.90
2018-09-09T08:19:57.052Z,99.90
2018-09-09T08:22:25.684Z,99.90
2018-09-09T08:24:54.460Z,99.90
2018-09-09T08:27:23.081Z,99.90
2018-09-09T08:29:51.741Z,99.90
2018-09-09T08:32:20.381Z,99.90
2018-09-09T08:34:49.047Z,99.90
2018-09-09T08:37:17.797Z,99.90
2018-09-09T08:39:46.452Z,99.90
2018-09-09T08:42:15.061Z,99.90
2018-09-09T08:44:43.886Z,99.90
2018-09-09T08:47:12.538Z,99.90
2018-09-09T08:49:41.167Z,99.90
2018-09-09T08:52:09.907Z,99.90
2018-09-09T08:54:38.595Z,99.90
2018-09-09T08:57:07.208Z,99.90
2018-09-09T08:59:35.921Z,99.90
2018-09-09T09:02:04.654Z,99.90
2018-09-09T09:04:33.333Z,99.90
2018-09-09T09:07:02.396Z,99.90
2018-09-09T09:09:31.095Z,99.90
2018-09-09T09:11:59.875Z,99.90
2018-09-09T09:14:28.554Z,99.90
2018-09-09T09:16:57.279Z,99.90
2018-09-09T09:19:25.889Z,99.90
2018-09-09T09:21:54.816Z,99.90
2018-09-09T09:24:23.438Z,99.90
2018-09-09T09:26:52.094Z,99.90
2018-09-09T09:29:20.771Z,99.90
2018-09-09T09:31:49.416Z,99.90
2018-09-09T09:34:18.047Z,99.90
2018-09-09T09:36:46.670Z,99.90
2018-09-09T09:39:15.351Z,99.90
2018-09-09T09:41:43.998Z,99.90
2018-09-09T09:44:12.610Z,99.90
2018-09-09T09:46:41.233Z,99.90
2018-09-09T09:49:09.936Z,99.90
2018-09-09T09:51:38.593Z,99.90
2018-09-09T09:54:07.214Z,99.90
2018-09-09T09:56:35.862Z,99.90
2018-09-09T09:59:04.973Z,98.70
2018-09-09T10:01:33.658Z,97.10
2018-09-09T10:04:02.270Z,97.40
2018-09-09T10:06:30.976Z,97.90
2018-09-09T10:08:59.830Z,98.10
2018-09-09T10:11:28.477Z,97.30
2018-09-09T10:13:57.113Z,97.10
2018-09-09T10:16:25.745Z,97.30
2018-09-09T10:18:54.393Z,96.20
2018-09-09T10:21:29.633Z,96.50
2018-09-09T10:23:58.522Z,95.80
2018-09-09T10:26:27.259Z,93.50
2018-09-09T10:28:55.880Z,93.10
2018-09-09T10:31:27.302Z,92.60
2018-09-09T10:33:55.962Z,93.80
2018-09-09T10:36:24.608Z,92.30
2018-09-09T10:38:53.210Z,90.90
2018-09-09T10:41:21.870Z,92.20
2018-09-09T10:43:50.537Z,90.80
2018-09-09T10:46:19.309Z,91.20
2018-09-09T10:48:48.226Z,91.20
2018-09-09T10:51:16.863Z,90.80
2018-09-09T10:53:45.507Z,90.50
2018-09-09T10:56:14.187Z,90.40
2018-09-09T10:58:42.879Z,90.40
2018-09-09T11:01:11.658Z,91.30
2018-09-09T11:03:40.282Z,88.90
2018-09-09T11:06:08.908Z,88.90
2018-09-09T11:08:37.559Z,89.00
2018-09-09T11:11:06.213Z,88.00
2018-09-09T11:13:34.863Z,89.50
2018-09-09T11:16:03.495Z,89.20
2018-09-09T11:18:32.179Z,87.80
2018-09-09T11:21:00.853Z,88.00
2018-09-09T11:23:29.454Z,84.60
2018-09-09T11:25:58.238Z,82.80
2018-09-09T11:28:26.929Z,84.10
2018-09-09T11:30:55.558Z,80.00
2018-09-09T11:33:24.181Z,76.20
2018-09-09T11:35:52.833Z,77.10
2018-09-09T11:38:21.619Z,73.60
2018-09-09T11:40:50.281Z,71.90
2018-09-09T11:43:18.892Z,70.00
2018-09-09T11:45:47.578Z,70.60
2018-09-09T11:48:16.225Z,72.70
2018-09-09T11:50:45.035Z,70.80
2018-09-09T11:53:13.696Z,66.60
2018-09-09T11:55:42.442Z,66.00
2018-09-09T11:58:11.145Z,66.50
2018-09-09T12:00:39.788Z,68.00
2018-09-09T12:03:08.512Z,65.50
2018-09-09T12:05:37.126Z,63.00
2018-09-09T12:08:05.870Z,62.80
2018-09-09T12:10:34.561Z,60.60
2018-09-09T12:13:03.186Z,57.10
2018-09-09T12:15:32.011Z,56.00
2018-09-09T12:18:00.622Z,53.30
2018-09-09T12:20:29.237Z,52.70
2018-09-09T12:22:57.878Z,52.40
2018-09-09T12:25:26.538Z,53.10
2018-09-09T12:27:55.264Z,52.00
2018-09-09T12:30:23.917Z,51.90
2018-09-09T12:32:52.634Z,52.10
2018-09-09T12:35:21.370Z,52.00
2018-09-09T12:37:50.038Z,51.40
2018-09-09T12:40:18.991Z,51.80
2018-09-09T12:42:51.798Z,51.90
2018-09-09T12:45:25.852Z,51.10
2018-09-09T12:47:59.804Z,51.40
2018-09-09T12:50:28.443Z,51.00
2018-09-09T12:52:57.163Z,50.20
2018-09-09T12:55:25.791Z,50.40
2018-09-09T12:57:54.479Z,49.80
2018-09-09T13:00:23.178Z,49.00
2018-09-09T13:02:51.842Z,48.50
2018-09-09T13:05:20.503Z,47.20
2018-09-09T13:07:49.128Z,46.50
2018-09-09T13:10:17.787Z,47.00
2018-09-09T13:12:51.849Z,47.00
2018-09-09T13:15:20.468Z,46.20
2018-09-09T13:17:49.345Z,46.80
2018-09-09T13:20:17.946Z,45.80
2018-09-09T13:22:46.602Z,45.00
2018-09-09T13:25:15.222Z,43.90
2018-09-09T13:27:43.841Z,46.10
2018-09-09T13:30:12.510Z,44.30
2018-09-09T13:32:41.164Z,43.60
2018-09-09T13:35:09.809Z,43.40
2018-09-09T13:37:38.483Z,42.30
2018-09-09T13:40:07.226Z,41.50
2018-09-09T13:42:35.919Z,43.40
2018-09-09T13:45:04.943Z,42.00
2018-09-09T13:47:33.605Z,40.40
2018-09-09T13:50:02.307Z,40.40
2018-09-09T13:52:30.961Z,40.30
2018-09-09T13:54:59.597Z,40.80
2018-09-09T13:57:28.322Z,41.10
2018-09-09T13:59:57.008Z,41.70
2018-09-09T14:02:25.947Z,42.20
2018-09-09T14:04:54.694Z,41.30
2018-09-09T14:07:23.358Z,41.00
2018-09-09T14:09:51.993Z,39.00
2018-09-09T14:12:20.702Z,37.90
2018-09-09T14:14:49.381Z,40.50
2018-09-09T14:17:18.194Z,37.80
2018-09-09T14:19:46.854Z,38.00
2018-09-09T14:22:15.549Z,37.40
2018-09-09T14:24:44.388Z,37.80
2018-09-09T14:27:13.004Z,40.00
2018-09-09T14:29:41.688Z,38.10
2018-09-09T14:32:10.342Z,39.10
2018-09-09T14:34:39.146Z,38.90
2018-09-09T14:37:07.823Z,36.90
2018-09-09T14:39:36.862Z,35.70
2018-09-09T14:42:12.082Z,36.20
2018-09-09T14:44:40.730Z,35.80
2018-09-09T14:47:09.342Z,35.30
2018-09-09T14:49:38.012Z,34.30
2018-09-09T14:52:06.641Z,33.50
2018-09-09T14:54:35.319Z,33.80
2018-09-09T14:57:03.940Z,34.30
2018-09-09T14:59:32.600Z,33.50
2018-09-09T15:02:01.259Z,33.60
2018-09-09T15:04:29.970Z,32.10
2018-09-09T15:06:58.808Z,32.70
2018-09-09T15:09:27.385Z,33.80
2018-09-09T15:11:56.063Z,33.70
2018-09-09T15:14:24.708Z,33.10
2018-09-09T15:16:53.364Z,32.70
2018-09-09T15:19:22.034Z,34.00
2018-09-09T15:21:50.661Z,33.10
2018-09-09T15:24:19.316Z,33.90
2018-09-09T15:26:47.963Z,34.00
2018-09-09T15:29:16.613Z,33.90
2018-09-09T15:31:45.269Z,34.80
2018-09-09T15:34:13.954Z,34.00
2018-09-09T15:36:42.573Z,33.80
2018-09-09T15:39:11.509Z,33.70
2018-09-09T15:41:40.149Z,34.80
2018-09-09T15:44:08.800Z,36.30
2018-09-09T15:46:37.446Z,34.70
2018-09-09T15:49:06.105Z,34.70
2018-09-09T15:51:34.885Z,34.90
2018-09-09T15:54:03.525Z,36.20
2018-09-09T15:56:32.145Z,37.20
2018-09-09T15:59:00.783Z,36.40
2018-09-09T16:01:29.458Z,36.40
2018-09-09T16:03:58.178Z,38.30
2018-09-09T16:06:26.825Z,38.80
2018-09-09T16:08:55.494Z,38.70
2018-09-09T16:11:24.194Z,38.20
2018-09-09T16:13:52.833Z,38.00
2018-09-09T16:16:21.505Z,37.90
2018-09-09T16:18:50.247Z,38.50
2018-09-09T16:21:18.801Z,38.50
2018-09-09T16:23:47.455Z,36.80
2018-09-09T16:26:16.085Z,36.80
2018-09-09T16:28:44.897Z,37.40
2018-09-09T16:31:13.506Z,35.50
2018-09-09T16:33:42.863Z,35.50
2018-09-09T16:36:11.507Z,35.40
2018-09-09T16:38:40.183Z,35.10
2018-09-09T16:41:08.846Z,35.80
2018-09-09T16:43:37.472Z,35.80
2018-09-09T16:46:06.145Z,36.40
2018-09-09T16:48:34.840Z,37.30
2018-09-09T16:51:03.458Z,37.90
2018-09-09T16:53:32.249Z,38.30
2018-09-09T16:56:00.899Z,37.60
2018-09-09T16:58:29.546Z,37.30
2018-09-09T17:00:58.314Z,37.30
2018-09-09T17:03:26.916Z,37.50
2018-09-09T17:05:55.930Z,38.80
2018-09-09T17:08:24.661Z,40.60
2018-09-09T17:10:53.434Z,40.60
2018-09-09T17:13:22.106Z,42.50
2018-09-09T17:15:51.057Z,44.20
2018-09-09T17:18:19.784Z,44.90
2018-09-09T17:20:48.496Z,46.50
2018-09-09T17:23:17.214Z,47.60
2018-09-09T17:25:45.866Z,47.30
2018-09-09T17:28:14.517Z,48.10
2018-09-09T17:30:43.184Z,47.90
2018-09-09T17:33:11.794Z,49.40
2018-09-09T17:35:40.483Z,49.70
2018-09-09T17:38:09.129Z,49.90
2018-09-09T17:40:37.858Z,50.30
2018-09-09T17:43:06.634Z,50.80
2018-09-09T17:45:35.306Z,50.90
2018-09-09T17:48:03.957Z,51.70
2018-09-09T17:50:32.581Z,52.70
2018-09-09T17:53:01.356Z,52.30
2018-09-09T17:55:29.969Z,53.20
2018-09-09T17:57:58.699Z,52.60
2018-09-09T18:00:27.504Z,53.00
2018-09-09T18:02:56.125Z,53.50
2018-09-09T18:05:24.771Z,54.40
2018-09-09T18:07:53.373Z,53.50
2018-09-09T18:10:22.108Z,56.40
2018-09-09T18:12:50.745Z,57.00
2018-09-09T18:15:19.392Z,58.30
2018-09-09T18:17:48.041Z,59.00
2018-09-09T18:20:16.707Z,59.70
2018-09-09T18:22:45.318Z,61.70
2018-09-09T18:25:13.945Z,61.30
2018-09-09T18:27:42.550Z,61.70
2018-09-09T18:30:11.194Z,64.30
2018-09-09T18:32:39.806Z,65.40
2018-09-09T18:35:08.584Z,65.90
2018-09-09T18:37:37.190Z,68.30
2018-09-09T18:40:05.863Z,69.10
2018-09-09T18:42:34.517Z,71.40
2018-09-09T18:45:03.205Z,73.40
2018-09-09T18:47:31.816Z,75.60
2018-09-09T18:50:00.474Z,78.00
2018-09-09T18:52:29.068Z,80.00
2018-09-09T18:54:57.707Z,82.20
2018-09-09T18:57:26.342Z,84.20
2018-09-09T18:59:55.096Z,87.40
2018-09-09T19:02:23.709Z,89.40
2018-09-09T19:04:52.332Z,90.60
2018-09-09T19:07:21.013Z,92.50
2018-09-09T19:09:49.658Z,94.10
2018-09-09T19:12:18.386Z,95.30
2018-09-09T19:14:47.538Z,96.10
2018-09-09T19:17:16.185Z,96.90
2018-09-09T19:19:44.866Z,97.90
2018-09-09T19:22:13.615Z,99.00
2018-09-09T19:24:42.469Z,99.60
2018-09-09T19:27:11.127Z,99.90
2018-09-09T19:29:39.721Z,99.90
2018-09-09T19:32:08.388Z,99.90
2018-09-09T19:34:37.013Z,99.90
2018-09-09T19:37:05.816Z,99.90
2018-09-09T19:39:34.495Z,99.90
2018-09-09T19:42:03.116Z,99.90
2018-09-09T19:44:31.793Z,99.90
2018-09-09T19:47:00.461Z,99.90
2018-09-09T19:49:29.262Z,99.90
2018-09-09T19:51:57.917Z,99.90
2018-09-09T19:54:26.532Z,99.90
2018-09-09T19:56:55.225Z,99.90
2018-09-09T19:59:23.901Z,99.90
2018-09-09T20:01:52.554Z,99.90
2018-09-09T20:04:21.150Z,99.90
2018-09-09T20:06:49.790Z,99.90
2018-09-09T20:09:18.439Z,99.90
2018-09-09T20:11:47.049Z,99.90
2018-09-09T20:14:15.716Z,99.90
2018-09-09T20:16:44.377Z,99.90
2018-09-09T20:19:13.024Z,99.90
2018-09-09T20:21:41.728Z,99.90
2018-09-09T20:24:10.378Z,99.90
2018-09-09T20:26:39.143Z,99.90
2018-09-09T20:29:07.788Z,99.90
2018-09-09T20:31:36.489Z,99.90
2018-09-09T20:34:05.427Z,99.90
2018-09-09T20:36:34.113Z,99.90
2018-09-09T20:39:02.879Z,99.90
2018-09-09T20:41:31.663Z,99.90
2018-09-09T20:44:03.843Z,99.90
2018-09-09T20:46:32.511Z,99.90
2018-09-09T20:49:01.257Z,99.90
2018-09-09T20:51:30.009Z,99.90
2018-09-09T20:53:58.752Z,99.90
2018-09-09T20:56:28.469Z,99.90
2018-09-09T20:58:57.118Z,99.90
2018-09-09T21:01:25.767Z,99.90
2018-09-09T21:03:54.436Z,99.90
2018-09-09T21:06:23.096Z,99.90
2018-09-09T21:08:51.825Z,99.90
2018-09-09T21:11:20.473Z,99.90
2018-09-09T21:13:49.092Z,99.90
2018-09-09T21:16:17.789Z,99.90
2018-09-09T21:18:46.453Z,99.90
2018-09-09T21:21:15.121Z,99.90
2018-09-09T21:23:43.805Z,99.90
2018-09-09T21:26:12.621Z,99.90
2018-09-09T21:28:41.329Z,99.90
2018-09-09T21:31:10.023Z,99.90
2018-09-09T21:33:38.686Z,99.90
2018-09-09T21:36:07.506Z,99.90
2018-09-09T21:38:36.178Z,99.90
2018-09-09T21:41:04.860Z,99.90
2018-09-09T21:43:33.506Z,99.90
2018-09-09T21:46:02.146Z,99.90
2018-09-09T21:48:30.822Z,99.90
2018-09-09T21:50:59.482Z,99.90
2018-09-09T21:53:28.207Z,99.90
2018-09-09T21:55:56.837Z,99.90
2018-09-09T21:58:25.517Z,99.90
2018-09-09T22:00:59.585Z,99.90
2018-09-09T22:03:28.259Z,99.90
2018-09-09T22:05:57.989Z,99.90
2018-09-09T22:08:26.763Z,99.90
2018-09-09T22:10:55.782Z,99.90
2018-09-09T22:13:24.481Z,99.90
2018-09-09T22:15:53.283Z,99.90
2018-09-09T22:18:21.971Z,99.90
2018-09-09T22:20:50.648Z,99.90
2018-09-09T22:23:19.294Z,99.90
2018-09-09T22:25:47.937Z,99.90
2018-09-09T22:28:17.377Z,99.90
2018-09-09T22:30:46.146Z,99.90
2018-09-09T22:33:14.755Z,99.90
2018-09-09T22:35:43.397Z,99.90
2018-09-09T22:38:12.073Z,99.90
2018-09-09T22:40:40.688Z,99.90
2018-09-09T22:43:09.503Z,99.90
2018-09-09T22:45:38.184Z,99.90
2018-09-09T22:48:06.931Z,99.90
2018-09-09T22:50:36.002Z,99.90
2018-09-09T22:53:04.698Z,99.90
2018-09-09T22:55:33.432Z,99.90
2018-09-09T22:58:02.506Z,99.90
2018-09-09T23:00:31.150Z,99.90
2018-09-09T23:02:59.784Z,99.90
2018-09-09T23:05:28.409Z,99.90
2018-09-09T23:07:57.264Z,99.90
2018-09-09T23:10:25.937Z,99.90
2018-09-09T23:12:54.585Z,99.90
2018-09-09T23:15:26.272Z,99.90
2018-09-09T23:17:55.378Z,99.90
2018-09-09T23:20:24.234Z,99.90
2018-09-09T23:22:53.694Z,99.90
2018-09-09T23:25:22.918Z,99.90
2018-09-09T23:27:51.598Z,99.90
2018-09-09T23:30:20.237Z,99.90
2018-09-09T23:32:49.027Z,99.90
2018-09-09T23:35:17.663Z,99.90
2018-09-09T23:37:46.313Z,99.90
2018-09-09T23:40:14.957Z,99.90
2018-09-09T23:42:43.613Z,99.90
2018-09-09T23:45:12.310Z,99.90
2018-09-09T23:47:40.954Z,99.90
2018-09-09T23:50:09.665Z,99.90
2018-09-09T23:52:38.321Z,99.90
2018-09-09T23:55:07.386Z,99.90
2018-09-09T23:57:36.061Z,99.90
